createdAt,value
2022-12-12T00:01:29.556Z,100235.72
2022-12-12T00:03:56.942Z,100238.16
2022-12-12T00:06:25.585Z,100246.91
2022-12-12T00:08:53.352Z,100250.28
2022-12-12T00:11:22.878Z,100244.19
2022-12-12T00:13:50.583Z,100239.31
2022-12-12T00:16:17.689Z,100241.97
2022-12-12T00:18:45.330Z,100250.56
2022-12-12T00:21:24.475Z,100247.44
2022-12-12T00:23:52.262Z,100241.84
2022-12-12T00:26:32.580Z,100245.66
2022-12-12T00:29:01.416Z,100251.22
2022-12-12T00:31:29.609Z,100263.47
2022-12-12T00:33:57.191Z,100259.34
2022-12-12T00:36:30.724Z,100250.56
2022-12-12T00:38:58.888Z,100257.78
2022-12-12T00:41:26.279Z,100263.75
2022-12-12T00:43:53.241Z,100265.44
2022-12-12T00:46:24.371Z,100266.03
2022-12-12T00:48:56.996Z,100270.25
2022-12-12T00:51:26.826Z,100265.31
2022-12-12T00:53:54.369Z,100264.88
2022-12-12T00:56:23.202Z,100263.66
2022-12-12T00:58:50.812Z,100264.81
2022-12-12T01:01:27.360Z,100264.94
2022-12-12T01:03:54.599Z,100263.75
2022-12-12T01:06:23.356Z,100272.16
2022-12-12T01:08:50.440Z,100271.50
2022-12-12T01:11:19.300Z,100268.69
2022-12-12T01:13:50.677Z,100275.69
2022-12-12T01:16:17.995Z,100270.53
2022-12-12T01:18:45.605Z,100271.78
2022-12-12T01:21:17.876Z,100270.25
2022-12-12T01:23:45.532Z,100272.09
2022-12-12T01:26:19.396Z,100269.13
2022-12-12T01:28:47.754Z,100274.16
2022-12-12T01:31:15.270Z,100282.72
2022-12-12T01:33:46.282Z,100277.91
2022-12-12T01:36:21.547Z,100272.78
2022-12-12T01:38:53.086Z,100269.72
2022-12-12T01:41:21.214Z,100273.59
2022-12-12T01:43:49.261Z,100254.28
2022-12-12T01:46:22.314Z,100254.69
2022-12-12T01:49:04.024Z,100248.03
2022-12-12T01:51:31.733Z,100259.41
2022-12-12T01:54:13.742Z,100267.63
2022-12-12T01:56:43.260Z,100266.03
2022-12-12T01:59:15.512Z,100272.22
2022-12-12T02:01:43.006Z,100262.94
2022-12-12T02:04:11.331Z,100268.06
2022-12-12T02:06:40.762Z,100265.53
2022-12-12T02:09:12.652Z,100271.31
2022-12-12T02:11:51.328Z,100268.06
2022-12-12T02:14:29.310Z,100277.00
2022-12-12T02:17:34.304Z,100281.94
2022-12-12T02:20:41.915Z,100277.81
2022-12-12T02:23:44.376Z,100271.59
2022-12-12T02:27:29.611Z,100275.69
2022-12-12T02:30:12.170Z,100276.47
2022-12-12T02:33:20.448Z,100270.66
2022-12-12T02:36:11.294Z,100268.66
2022-12-12T02:39:09.998Z,100272.81
2022-12-12T02:41:50.660Z,100269.53
2022-12-12T02:44:35.638Z,100278.53
2022-12-12T02:47:35.285Z,100274.16
2022-12-12T02:50:15.175Z,100268.59
2022-12-12T02:52:47.754Z,100271.25
2022-12-12T02:55:15.981Z,100275.59
2022-12-12T02:57:43.363Z,100269.81
2022-12-12T03:00:17.102Z,100281.22
2022-12-12T03:03:28.480Z,100284.22
2022-12-12T03:06:40.904Z,100291.00
2022-12-12T03:09:25.909Z,100287.53
2022-12-12T03:12:14.486Z,100291.31
2022-12-12T03:15:04.956Z,100289.94
2022-12-12T03:18:05.227Z,100291.69
2022-12-12T03:21:00.382Z,100289.22
2022-12-12T03:23:38.751Z,100293.81
2022-12-12T03:26:55.481Z,100284.53
2022-12-12T03:29:32.194Z,100283.75
2022-12-12T03:32:11.595Z,100287.66
2022-12-12T03:34:48.047Z,100286.66
2022-12-12T03:37:35.384Z,100278.91
2022-12-12T03:40:10.071Z,100284.47
2022-12-12T03:42:44.616Z,100285.09
2022-12-12T03:45:33.433Z,100281.44
2022-12-12T03:48:40.711Z,100281.81
2022-12-12T03:51:30.425Z,100274.91
2022-12-12T03:54:14.983Z,100282.25
2022-12-12T03:57:44.708Z,100286.94
2022-12-12T04:00:15.087Z,100284.53
2022-12-12T04:02:52.086Z,100284.09
2022-12-12T04:05:36.945Z,100283.19
2022-12-12T04:08:13.362Z,100282.69
2022-12-12T04:11:11.947Z,100280.34
2022-12-12T04:14:52.259Z,100283.66
2022-12-12T04:17:56.975Z,100281.75
2022-12-12T04:21:25.678Z,100282.66
2022-12-12T04:24:43.817Z,100278.22
2022-12-12T04:27:50.522Z,100274.19
2022-12-12T04:30:17.827Z,100279.16
2022-12-12T04:33:11.848Z,100272.63
2022-12-12T04:35:47.875Z,100270.97
2022-12-12T04:38:22.676Z,100270.84
2022-12-12T04:40:58.307Z,100273.47
2022-12-12T04:43:33.302Z,100271.69
2022-12-12T04:46:10.484Z,100272.81
2022-12-12T04:48:56.716Z,100276.50
2022-12-12T04:51:45.125Z,100279.28
2022-12-12T04:54:38.106Z,100272.97
2022-12-12T04:57:10.654Z,100275.72
2022-12-12T04:59:38.279Z,100288.50
2022-12-12T05:02:43.060Z,100277.16
2022-12-12T05:05:57.979Z,100279.31
2022-12-12T05:08:35.449Z,100281.34
2022-12-12T05:11:06.578Z,100281.75
2022-12-12T05:13:41.851Z,100282.59
2022-12-12T05:16:24.224Z,100286.31
2022-12-12T05:18:51.431Z,100278.75
2022-12-12T05:21:18.693Z,100282.09
2022-12-12T05:23:45.859Z,100277.94
2022-12-12T05:26:32.414Z,100278.59
2022-12-12T05:29:06.707Z,100284.66
2022-12-12T05:31:34.487Z,100282.69
2022-12-12T05:34:01.553Z,100286.16
2022-12-12T05:36:28.616Z,100282.72
2022-12-12T05:38:55.683Z,100281.84
2022-12-12T05:41:26.328Z,100293.00
2022-12-12T05:43:53.409Z,100285.72
2022-12-12T05:46:20.433Z,100284.47
2022-12-12T05:48:50.769Z,100285.47
2022-12-12T05:51:18.918Z,100282.72
2022-12-12T05:53:47.279Z,100283.03
2022-12-12T05:56:14.493Z,100275.66
2022-12-12T05:58:42.405Z,100287.44
2022-12-12T06:01:09.628Z,100292.41
2022-12-12T06:03:37.050Z,100293.25
2022-12-12T06:06:05.022Z,100289.97
2022-12-12T06:08:32.483Z,100288.88
2022-12-12T06:10:59.726Z,100289.13
2022-12-12T06:13:26.829Z,100287.22
2022-12-12T06:15:53.957Z,100297.59
2022-12-12T06:18:21.133Z,100299.00
2022-12-12T06:20:48.166Z,100304.72
2022-12-12T06:23:15.449Z,100306.19
2022-12-12T06:25:42.510Z,100305.06
2022-12-12T06:28:09.589Z,100304.41
2022-12-12T06:30:36.625Z,100299.38
2022-12-12T06:33:03.724Z,100313.91
2022-12-12T06:35:30.787Z,100316.75
2022-12-12T06:37:57.834Z,100314.06
2022-12-12T06:40:24.797Z,100315.28
2022-12-12T06:42:51.973Z,100314.78
2022-12-12T06:45:19.090Z,100325.81
2022-12-12T06:47:46.149Z,100334.63
2022-12-12T06:50:13.302Z,100328.03
2022-12-12T06:52:40.368Z,100332.72
2022-12-12T06:55:08.274Z,100335.25
2022-12-12T06:57:35.385Z,100332.69
2022-12-12T07:00:03.957Z,100335.44
2022-12-12T07:02:31.009Z,100334.78
2022-12-12T07:04:58.711Z,100339.19
2022-12-12T07:07:26.094Z,100342.19
2022-12-12T07:09:53.088Z,100339.94
2022-12-12T07:12:20.085Z,100342.66
2022-12-12T07:14:47.209Z,100350.22
2022-12-12T07:17:14.296Z,100346.97
2022-12-12T07:19:41.229Z,100349.75
2022-12-12T07:22:10.413Z,100351.31
2022-12-12T07:24:38.144Z,100348.44
2022-12-12T07:27:06.730Z,100348.13
2022-12-12T07:29:34.439Z,100352.00
2022-12-12T07:32:01.477Z,100348.34
2022-12-12T07:34:32.471Z,100348.13
2022-12-12T07:37:03.097Z,100358.47
2022-12-12T07:39:34.518Z,100361.78
2022-12-12T07:42:01.549Z,100361.72
2022-12-12T07:44:28.508Z,100357.22
2022-12-12T07:46:58.915Z,100357.03
2022-12-12T07:49:27.904Z,100363.94
2022-12-12T07:51:55.013Z,100372.66
2022-12-12T07:54:22.084Z,100373.72
2022-12-12T07:56:49.063Z,100384.50
2022-12-12T07:59:16.317Z,100376.91
2022-12-12T08:01:43.679Z,100384.66
2022-12-12T08:04:10.706Z,100390.38
2022-12-12T08:06:37.705Z,100388.22
2022-12-12T08:09:05.352Z,100390.56
2022-12-12T08:11:32.374Z,100388.41
2022-12-12T08:13:59.685Z,100389.13
2022-12-12T08:16:29.899Z,100389.28
2022-12-12T08:18:59.152Z,100388.84
2022-12-12T08:21:27.757Z,100397.00
2022-12-12T08:24:00.940Z,100400.13
2022-12-12T08:26:29.571Z,100401.44
2022-12-12T08:28:57.620Z,100408.34
2022-12-12T08:31:26.123Z,100401.56
2022-12-12T08:33:53.880Z,100412.16
2022-12-12T08:36:25.775Z,100399.53
2022-12-12T08:38:52.994Z,100413.31
2022-12-12T08:41:20.453Z,100407.56
2022-12-12T08:43:48.597Z,100408.94
2022-12-12T08:46:18.740Z,100412.97
2022-12-12T08:48:47.576Z,100415.09
2022-12-12T08:51:16.992Z,100426.69
2022-12-12T08:53:47.109Z,100418.63
2022-12-12T08:56:15.441Z,100424.25
2022-12-12T08:58:42.879Z,100430.84
2022-12-12T09:01:25.676Z,100427.47
2022-12-12T09:03:56.222Z,100426.94
2022-12-12T09:06:25.257Z,100433.75
2022-12-12T09:08:54.052Z,100438.28
2022-12-12T09:11:21.192Z,100444.81
2022-12-12T09:13:48.313Z,100438.59
2022-12-12T09:16:16.087Z,100436.41
2022-12-12T09:18:48.464Z,100450.13
2022-12-12T09:21:18.106Z,100444.78
2022-12-12T09:23:45.609Z,100446.16
2022-12-12T09:26:14.241Z,100449.25
2022-12-12T09:28:41.501Z,100442.78
2022-12-12T09:31:11.961Z,100460.19
2022-12-12T09:33:43.339Z,100455.13
2022-12-12T09:36:13.116Z,100461.44
2022-12-12T09:38:41.116Z,100456.53
2022-12-12T09:41:17.962Z,100463.00
2022-12-12T09:44:02.960Z,100458.38
2022-12-12T09:47:00.338Z,100456.28
2022-12-12T09:49:54.259Z,100456.41
2022-12-12T09:52:33.041Z,100453.81
2022-12-12T09:55:11.345Z,100459.25
2022-12-12T09:57:57.933Z,100453.25
2022-12-12T10:00:27.216Z,100456.03
2022-12-12T10:03:30.011Z,100456.41
2022-12-12T10:09:28.880Z,100451.88
2022-12-12T10:11:57.356Z,100450.06
2022-12-12T10:14:37.001Z,100453.59
2022-12-12T10:17:30.961Z,100459.88
2022-12-12T10:20:23.634Z,100459.97
2022-12-12T10:23:23.880Z,100460.19
2022-12-12T10:26:08.318Z,100466.56
2022-12-12T10:28:47.589Z,100459.38
2022-12-12T10:32:03.130Z,100460.28
2022-12-12T10:35:22.782Z,100457.09
2022-12-12T10:38:53.880Z,100448.84
2022-12-12T10:41:50.043Z,100449.97
2022-12-12T10:45:05.759Z,100452.56
2022-12-12T10:47:35.028Z,100450.69
2022-12-12T10:50:13.281Z,100454.69
2022-12-12T10:52:40.947Z,100453.38
2022-12-12T10:55:36.902Z,100448.72
2022-12-12T10:58:06.493Z,100454.53
2022-12-12T11:00:45.730Z,100454.66
2022-12-12T11:03:44.634Z,100453.16
2022-12-12T11:06:52.781Z,100453.50
2022-12-12T11:09:27.445Z,100456.63
2022-12-12T11:12:10.757Z,100454.09
2022-12-12T11:14:51.704Z,100439.41
2022-12-12T11:17:33.728Z,100447.59
2022-12-12T11:20:07.380Z,100444.19
2022-12-12T11:22:54.655Z,100448.78
2022-12-12T11:25:32.356Z,100442.75
2022-12-12T11:28:06.646Z,100447.00
2022-12-12T11:30:43.348Z,100452.22
2022-12-12T11:33:22.649Z,100449.50
2022-12-12T11:35:55.865Z,100452.38
2022-12-12T11:38:41.132Z,100454.00
2022-12-12T11:41:12.471Z,100462.03
2022-12-12T11:43:52.595Z,100462.91
2022-12-12T11:46:30.750Z,100459.03
2022-12-12T11:49:04.491Z,100478.09
2022-12-12T11:51:34.311Z,100475.59
2022-12-12T11:54:11.235Z,100469.59
2022-12-12T11:57:12.234Z,100472.81
2022-12-12T12:00:07.043Z,100471.47
2022-12-12T12:03:28.920Z,100462.13
2022-12-12T12:06:23.852Z,100470.22
2022-12-12T12:09:30.114Z,100465.13
2022-12-12T12:12:40.970Z,100468.66
2022-12-12T12:15:43.592Z,100472.22
2022-12-12T12:18:33.645Z,100463.63
2022-12-12T12:21:13.656Z,100461.06
2022-12-12T12:24:26.441Z,100471.69
2022-12-12T12:27:29.049Z,100461.78
2022-12-12T12:30:56.563Z,100468.59
2022-12-12T12:34:11.391Z,100460.94
2022-12-12T12:37:42.428Z,100461.63
2022-12-12T12:40:40.424Z,100451.28
2022-12-12T12:44:03.903Z,100450.00
2022-12-12T12:47:20.802Z,100450.69
2022-12-12T12:50:04.647Z,100453.03
2022-12-12T12:53:26.653Z,100462.75
2022-12-12T12:56:02.980Z,100464.69
2022-12-12T12:58:44.363Z,100465.59
2022-12-12T13:01:31.885Z,100468.88
2022-12-12T13:04:10.627Z,100464.41
2022-12-12T13:07:23.468Z,100463.47
2022-12-12T13:10:35.040Z,100457.69
2022-12-12T13:13:47.763Z,100458.13
2022-12-12T13:16:24.646Z,100462.06
2022-12-12T13:19:11.175Z,100460.66
2022-12-12T13:22:43.873Z,100464.19
2022-12-12T13:25:46.226Z,100470.75
2022-12-12T13:28:29.617Z,100463.53
2022-12-12T13:31:17.668Z,100464.59
2022-12-12T13:34:08.859Z,100466.06
2022-12-12T13:36:42.871Z,100461.91
2022-12-12T13:39:31.402Z,100461.31
2022-12-12T13:42:01.690Z,100462.66
2022-12-12T13:44:47.248Z,100458.53
2022-12-12T13:47:23.534Z,100457.00
2022-12-12T13:50:08.424Z,100455.63
2022-12-12T13:52:45.410Z,100461.47
2022-12-12T13:55:15.918Z,100471.31
2022-12-12T13:57:59.045Z,100468.03
2022-12-12T14:00:46.306Z,100471.78
2022-12-12T14:03:13.434Z,100474.00
2022-12-12T14:05:53.512Z,100478.44
2022-12-12T14:08:28.029Z,100474.00
2022-12-12T14:11:05.951Z,100473.38
2022-12-12T14:13:45.752Z,100478.56
2022-12-12T14:16:26.791Z,100483.56
2022-12-12T14:19:18.147Z,100483.91
2022-12-12T14:21:49.025Z,100485.41
2022-12-12T14:24:34.135Z,100486.41
2022-12-12T14:27:09.808Z,100492.22
2022-12-12T14:29:44.359Z,100489.28
2022-12-12T14:32:11.174Z,100494.75
2022-12-12T14:35:09.304Z,100498.13
2022-12-12T14:38:20.650Z,100496.69
2022-12-12T14:40:49.570Z,100495.19
2022-12-12T14:43:35.767Z,100506.53
2022-12-12T14:46:04.363Z,100492.13
2022-12-12T14:48:36.233Z,100503.91
2022-12-12T14:51:25.857Z,100511.78
2022-12-12T14:53:59.276Z,100509.91
2022-12-12T14:56:52.223Z,100510.00
2022-12-12T14:59:42.354Z,100508.97
2022-12-12T15:02:39.865Z,100522.88
2022-12-12T15:05:08.254Z,100524.13
2022-12-12T15:07:38.550Z,100523.75
2022-12-12T15:10:30.520Z,100532.09
2022-12-12T15:12:57.509Z,100531.50
2022-12-12T15:15:30.641Z,100523.72
2022-12-12T15:18:00.951Z,100529.47
2022-12-12T15:20:32.316Z,100530.34
2022-12-12T15:23:04.182Z,100531.78
2022-12-12T15:26:02.867Z,100536.00
2022-12-12T15:28:33.061Z,100529.22
2022-12-12T15:31:01.135Z,100536.78
2022-12-12T15:33:28.626Z,100530.94
2022-12-12T15:36:02.890Z,100523.38
2022-12-12T15:38:31.329Z,100526.00
2022-12-12T15:41:02.475Z,100525.78
2022-12-12T15:43:31.710Z,100524.81
2022-12-12T15:46:15.583Z,100537.50
2022-12-12T15:48:49.672Z,100534.34
2022-12-12T15:51:24.593Z,100527.69
2022-12-12T15:53:57.905Z,100534.34
2022-12-12T15:56:31.386Z,100532.66
2022-12-12T15:59:04.080Z,100528.94
2022-12-12T16:01:31.433Z,100533.13
2022-12-12T16:04:09.862Z,100531.50
2022-12-12T16:06:45.989Z,100532.06
2022-12-12T16:09:26.687Z,100534.75
2022-12-12T16:12:00.436Z,100536.63
2022-12-12T16:14:32.595Z,100529.63
2022-12-12T16:17:21.031Z,100538.06
2022-12-12T16:20:07.229Z,100537.59
2022-12-12T16:22:49.861Z,100538.84
2022-12-12T16:25:26.421Z,100538.53
2022-12-12T16:28:25.027Z,100544.28
2022-12-12T16:31:06.520Z,100545.31
2022-12-12T16:33:40.300Z,100546.69
2022-12-12T16:36:14.398Z,100552.69
2022-12-12T16:38:43.125Z,100551.78
2022-12-12T16:41:18.771Z,100559.38
2022-12-12T16:43:46.084Z,100561.50
2022-12-12T16:46:25.322Z,100560.28
2022-12-12T16:48:53.657Z,100559.06
2022-12-12T16:51:28.339Z,100556.47
2022-12-12T16:53:55.587Z,100555.53
2022-12-12T16:56:22.650Z,100554.03
2022-12-12T16:58:50.505Z,100554.13
2022-12-12T17:01:18.679Z,100567.66
2022-12-12T17:03:46.015Z,100561.34
2022-12-12T17:06:13.117Z,100562.06
2022-12-12T17:08:40.155Z,100564.19
2022-12-12T17:11:10.371Z,100559.13
2022-12-12T17:13:46.097Z,100557.03
2022-12-12T17:16:13.364Z,100555.63
2022-12-12T17:18:40.455Z,100558.09
2022-12-12T17:21:07.493Z,100558.38
2022-12-12T17:23:34.830Z,100557.88
2022-12-12T17:26:04.971Z,100555.97
2022-12-12T17:28:34.081Z,100560.59
2022-12-12T17:31:02.427Z,100558.16
2022-12-12T17:33:30.223Z,100566.31
2022-12-12T17:36:04.596Z,100570.22
2022-12-12T17:38:32.400Z,100579.94
2022-12-12T17:41:04.815Z,100578.44
2022-12-12T17:43:31.956Z,100589.41
2022-12-12T17:46:07.056Z,100587.66
2022-12-12T17:48:35.530Z,100587.38
2022-12-12T17:51:07.045Z,100581.84
2022-12-12T17:53:38.217Z,100586.72
2022-12-12T17:56:16.286Z,100581.53
2022-12-12T17:58:46.588Z,100571.63
2022-12-12T18:01:21.582Z,100568.72
2022-12-12T18:03:49.791Z,100564.56
2022-12-12T18:06:19.728Z,100564.75
2022-12-12T18:08:47.956Z,100561.19
2022-12-12T18:11:24.648Z,100563.69
2022-12-12T18:13:53.850Z,100565.50
2022-12-12T18:16:23.609Z,100565.78
2022-12-12T18:18:55.220Z,100573.69
2022-12-12T18:24:16.016Z,100573.09
2022-12-12T18:26:47.652Z,100574.13
2022-12-12T18:29:14.718Z,100577.66
2022-12-12T18:31:41.912Z,100581.94
2022-12-12T18:34:08.957Z,100586.00
2022-12-12T18:36:36.087Z,100587.81
2022-12-12T18:39:05.664Z,100591.75
2022-12-12T18:41:33.961Z,100591.94
2022-12-12T18:44:11.509Z,100574.63
2022-12-12T18:46:43.024Z,100570.59
2022-12-12T18:49:15.497Z,100574.16
2022-12-12T18:51:45.167Z,100579.22
2022-12-12T18:54:15.995Z,100580.22
2022-12-12T18:56:46.606Z,100589.78
2022-12-12T18:59:15.377Z,100596.84
2022-12-12T19:01:42.420Z,100593.34
2022-12-12T19:04:14.076Z,100590.03
2022-12-12T19:06:43.324Z,100590.91
2022-12-12T19:09:17.718Z,100602.22
2022-12-12T19:11:45.739Z,100595.63
2022-12-12T19:14:15.208Z,100589.53
2022-12-12T19:16:44.242Z,100588.66
2022-12-12T19:19:12.349Z,100598.28
2022-12-12T19:21:40.731Z,100602.59
2022-12-12T19:24:10.468Z,100605.28
2022-12-12T19:26:40.594Z,100618.06
2022-12-12T19:29:14.389Z,100615.63
2022-12-12T19:31:42.116Z,100605.41
2022-12-12T19:34:12.255Z,100608.78
2022-12-12T19:36:40.431Z,100613.22
2022-12-12T19:39:08.806Z,100619.13
2022-12-12T19:41:36.341Z,100616.72
2022-12-12T19:44:05.582Z,100616.66
2022-12-12T19:46:33.337Z,100618.56
2022-12-12T19:49:07.365Z,100615.06
2022-12-12T19:51:39.031Z,100616.81
2022-12-12T19:54:18.850Z,100615.97
2022-12-12T19:56:46.849Z,100612.47
2022-12-12T19:59:17.646Z,100613.44
2022-12-12T20:01:45.812Z,100612.75
2022-12-12T20:04:22.080Z,100622.13
2022-12-12T20:06:50.857Z,100632.13
2022-12-12T20:09:26.015Z,100630.63
2022-12-12T20:11:54.741Z,100625.63
2022-12-12T20:14:26.217Z,100623.81
2022-12-12T20:16:54.515Z,100622.81
2022-12-12T20:19:26.812Z,100634.75
2022-12-12T20:22:03.557Z,100629.31
2022-12-12T20:24:33.829Z,100633.03
2022-12-12T20:27:03.509Z,100626.97
2022-12-12T20:29:31.287Z,100631.03
2022-12-12T20:31:59.843Z,100634.00
2022-12-12T20:34:28.111Z,100634.75
2022-12-12T20:36:55.677Z,100642.28
2022-12-12T20:39:25.700Z,100640.41
2022-12-12T20:41:54.430Z,100632.53
2022-12-12T20:44:23.937Z,100628.06
2022-12-12T20:46:52.113Z,100633.28
2022-12-12T20:49:22.373Z,100635.41
2022-12-12T20:51:57.961Z,100635.50
2022-12-12T20:54:30.634Z,100640.47
2022-12-12T20:56:58.964Z,100639.03
2022-12-12T20:59:26.847Z,100633.81
2022-12-12T21:01:54.306Z,100636.13
2022-12-12T21:04:22.048Z,100634.03
2022-12-12T21:06:50.964Z,100640.81
2022-12-12T21:09:25.895Z,100636.63
2022-12-12T21:11:57.856Z,100639.81
2022-12-12T21:14:28.138Z,100632.84
2022-12-12T21:16:55.523Z,100643.16
2022-12-12T21:19:23.658Z,100640.53
2022-12-12T21:21:51.840Z,100637.44
2022-12-12T21:24:19.701Z,100632.31
2022-12-12T21:26:47.655Z,100641.47
2022-12-12T21:29:15.979Z,100628.44
2022-12-12T21:31:50.247Z,100637.75
2022-12-12T21:34:19.160Z,100635.41
2022-12-12T21:36:46.184Z,100630.19
2022-12-12T21:39:13.525Z,100636.19
2022-12-12T21:41:43.608Z,100640.31
2022-12-12T21:44:10.757Z,100637.97
2022-12-12T21:46:41.595Z,100636.25
2022-12-12T21:49:26.541Z,100631.94
2022-12-12T21:52:05.490Z,100632.03
2022-12-12T21:54:32.870Z,100630.03
2022-12-12T21:57:00.728Z,100634.13
2022-12-12T21:59:29.130Z,100640.59
2022-12-12T22:02:00.753Z,100639.72
2022-12-12T22:04:28.414Z,100632.28
2022-12-12T22:06:57.258Z,100636.44
2022-12-12T22:09:24.966Z,100638.84
2022-12-12T22:12:04.384Z,100632.03
2022-12-12T22:14:35.790Z,100637.63
2022-12-12T22:17:05.292Z,100635.41
2022-12-12T22:19:32.523Z,100634.28
2022-12-12T22:21:59.775Z,100632.91
2022-12-12T22:24:27.177Z,100632.66
2022-12-12T22:26:54.356Z,100624.94
2022-12-12T22:29:21.527Z,100634.47
2022-12-12T22:31:52.373Z,100631.84
2022-12-12T22:34:24.201Z,100623.19
2022-12-12T22:36:52.948Z,100627.28
2022-12-12T22:39:28.350Z,100630.88
2022-12-12T22:41:56.716Z,100630.97
2022-12-12T22:44:26.045Z,100628.06
2022-12-12T22:46:55.657Z,100629.63
2022-12-12T22:49:26.378Z,100623.81
2022-12-12T22:51:56.792Z,100624.72
2022-12-12T22:54:24.890Z,100624.44
2022-12-12T22:56:52.287Z,100628.69
2022-12-12T22:59:19.436Z,100626.81
2022-12-12T23:01:46.470Z,100622.03
2022-12-12T23:04:14.920Z,100621.66
2022-12-12T23:06:43.755Z,100628.63
2022-12-12T23:09:19.933Z,100633.63
2022-12-12T23:11:47.135Z,100638.06
2022-12-12T23:14:23.401Z,100635.16
2022-12-12T23:16:51.756Z,100636.84
2022-12-12T23:19:25.621Z,100628.81
2022-12-12T23:21:53.115Z,100632.97
2022-12-12T23:24:20.106Z,100642.19
2022-12-12T23:26:50.367Z,100635.84
2022-12-12T23:29:17.582Z,100639.16
2022-12-12T23:31:44.973Z,100634.41
2022-12-12T23:34:24.580Z,100634.13
2022-12-12T23:36:54.114Z,100633.25
2022-12-12T23:39:23.178Z,100639.16
2022-12-12T23:41:50.412Z,100639.13
2022-12-12T23:44:21.881Z,100638.59
2022-12-12T23:46:50.497Z,100634.00
2022-12-12T23:49:23.045Z,100628.34
2022-12-12T23:51:59.251Z,100626.38
2022-12-12T23:54:34.853Z,100633.19
2022-12-12T23:57:03.167Z,100631.59
2022-12-12T23:59:30.537Z,100628.25
